WetterOnline ( https://www.wetteronline.de )

Wetter aktuell Gießen

Aktuelles Wetter: Neu-Ulrichstein (350m)

6-stündlich | Neueste Meldungen
Ortszeit Temperatur Wetter
So, 25.09. 2:00 11.1° C leichter Regen
Sa, 24.09. 20:00 14.9° C bedeckt
Sa, 24.09. 14:00 16.5° C wolkig
Sa, 24.09. 8:00 7.2° C Nebel
Sa, 24.09. 2:00 10.6° C bedeckt
Fr, 23.09. 20:00 14.2° C bedeckt
Fr, 23.09. 14:00 16.1° C wolkig
Fr, 23.09. 8:00 6.0° C bedeckt
Ortszeit Temperatur Wetter
So, 25.09. 6:30 10.7° C leichter Regen
So, 25.09. 6:20 10.7° C leichter Regen
So, 25.09. 6:10 10.7° C leichter Regen
So, 25.09. 6:00 10.7° C leichter Regen
So, 25.09. 5:50 10.7° C leichter Regen
So, 25.09. 5:40 10.7° C leichter Regen
So, 25.09. 5:30 10.6° C leichter Regen
So, 25.09. 5:00 10.7° C Sprühregen
So, 25.09. 4:30 10.5° C leichter Regen
So, 25.09. 4:00 10.8° C bedeckt
So, 25.09. 3:30 10.7° C bedeckt
Ortszeit Relative Feuchte Sichtweite
So, 25.09. 2:00 90% 20 km
Sa, 24.09. 20:00 63% 35 km
Sa, 24.09. 14:00 58% 50 km
Sa, 24.09. 8:00 99% 100 m
Sa, 24.09. 2:00 79% 40 km
Fr, 23.09. 20:00 64% 45 km
Fr, 23.09. 14:00 57% 45 km
Fr, 23.09. 8:00 86% 40 km
Ortszeit Relative Feuchte Sichtweite
So, 25.09. 6:30 95% 8 km
So, 25.09. 6:20 95% -
So, 25.09. 6:10 95% -
So, 25.09. 6:00 95% 7 km
So, 25.09. 5:50 95% -
So, 25.09. 5:40 95% -
So, 25.09. 5:30 95% 9 km
So, 25.09. 5:00 94% 10 km
So, 25.09. 4:30 95% 13 km
So, 25.09. 4:00 93% 17 km
So, 25.09. 3:30 93% 22 km
Ortszeit Niederschlagsmenge Niederschlagsart
So, 25.09. 2:00 0.1 l/m2 in 6 Std. Regen
Sa, 24.09. 20:00 0.1 l/m2 in 12 Std. Regen
Sa, 24.09. 14:00 0.0 l/m2 in 6 Std. -
Sa, 24.09. 8:00 0.0 l/m2 in 12 Std. -
Sa, 24.09. 2:00 0.0 l/m2 in 6 Std. -
Fr, 23.09. 20:00 0.0 l/m2 in 12 Std. -
Fr, 23.09. 14:00 0.0 l/m2 in 6 Std. -
Fr, 23.09. 8:00 0.0 l/m2 in 12 Std. -
Ortszeit Niederschlagsmenge Niederschlagsart
So, 25.09. 6:30 0.1 l/m2 in 1 Std. -
So, 25.09. 6:20 keine Meldung -
So, 25.09. 6:10 keine Meldung -
So, 25.09. 6:00 0.1 l/m2 in 1 Std. Regen
So, 25.09. 5:50 keine Meldung -
So, 25.09. 5:40 keine Meldung -
So, 25.09. 5:30 0.1 l/m2 in 1 Std. -
So, 25.09. 5:00 0.1 l/m2 in 1 Std. Regen
So, 25.09. 4:30 0.1 l/m2 in 1 Std. -
So, 25.09. 4:00 0.1 l/m2 in 1 Std. Regen
So, 25.09. 3:30 0.0 l/m2 in 1 Std. -
Ortszeit Stärke Spitze Richtung
km/h Bft. km/h Grad Sektor
So, 25.09. 2:00 7 2 22 40° NO
Sa, 24.09. 20:00 6 1 19 70° O
Sa, 24.09. 14:00 7 2 14 230° SW
Sa, 24.09. 8:00 4 1 14 320° NW
Sa, 24.09. 2:00 9 2 15 200° S
Fr, 23.09. 20:00 6 1 22 210° SW
Fr, 23.09. 14:00 11 2 22 200° S
Fr, 23.09. 8:00 6 1 11 90° O
Ortszeit Stärke Spitze Richtung
km/h Bft. km/h Grad Sektor
So, 25.09. 6:30 13 3 19 30° NO
So, 25.09. 6:20 13 3 - 30° NO
So, 25.09. 6:10 13 3 - 30° NO
So, 25.09. 6:00 11 2 18 20° N
So, 25.09. 5:50 11 2 - 20° N
So, 25.09. 5:40 11 2 - 30° NO
So, 25.09. 5:30 7 2 11 20° N
So, 25.09. 5:00 11 2 14 10° N
So, 25.09. 4:30 7 2 14 350° N
So, 25.09. 4:00 7 2 9 360° N
So, 25.09. 3:30 7 2 9 10° N
Ortszeit Untergrenze Bedeckung Gattung
total tief tief mittel hoch
So, 25.09. 2:00 1500 m 8/8 8/8 - - -
Sa, 24.09. 20:00 1350 m 8/8 8/8 - - -
Sa, 24.09. 14:00 2700 m 7/8 3/8 - - -
Sa, 24.09. 8:00 3300 m 8/8 8/8 - - -
Sa, 24.09. 2:00 4800 m 8/8 8/8 - - -
Fr, 23.09. 20:00 4500 m 8/8 8/8 - - -
Fr, 23.09. 14:00 6300 m 7/8 5/8 - - -
Fr, 23.09. 8:00 5700 m 8/8 8/8 - - -
Ortszeit Bedeckungsgrad in Achtel und Wolkenuntergrenze
So, 25.09. 6:30 6(180m) 7(780m) 8(1500m)
So, 25.09. 6:20 6(180m) 7(780m) 8(1500m)
So, 25.09. 6:10 8
So, 25.09. 6:00 3(180m) 5(780m) 8(1500m)
So, 25.09. 5:50 3(180m) 5(780m) 8(1500m)
So, 25.09. 5:40 7
So, 25.09. 5:30 8(1500m)
So, 25.09. 5:00 8(1500m)
So, 25.09. 4:30 4(1800m) 8(2100m) 8(3600m)
So, 25.09. 4:00 8(2100m)
So, 25.09. 3:30 8(2100m) 8(2700m) 8(3000m)
Ortszeit Luftdruck NN (hPa) Tendenz (hPa in 3 Std.)
So, 25.09. 2:00 1014 - 0,1
Sa, 24.09. 20:00 1012 + 0,6
Sa, 24.09. 14:00 1012 - 0,4
Sa, 24.09. 8:00 1014 - 0,3
Sa, 24.09. 2:00 1015 - 0,5
Fr, 23.09. 20:00 1015 - 0,3
Fr, 23.09. 14:00 1017 - 1,3
Fr, 23.09. 8:00 1020 - 0,6
Ortszeit Luftdruck NN (hPa) Tendenz (hPa in 3 Std.)
So, 25.09. 6:30 1013 - 0,1
So, 25.09. 6:20 1013 keine Meldung
So, 25.09. 6:10 1013 keine Meldung
So, 25.09. 6:00 1013 - 0,3
So, 25.09. 5:50 1013 keine Meldung
So, 25.09. 5:40 1013 keine Meldung
So, 25.09. 5:30 1013 - 0,3
So, 25.09. 5:00 1013 - 0,4
So, 25.09. 4:30 1013 - 0,2
So, 25.09. 4:00 1013 - 0,5
So, 25.09. 3:30 1013 - 0,5
Ortszeit Schneehöhe (cm)
So, 25.09. 2:00 0
Sa, 24.09. 20:00 0
Sa, 24.09. 14:00 0
Sa, 24.09. 8:00 0
Sa, 24.09. 2:00 0
Fr, 23.09. 20:00 0
Fr, 23.09. 14:00 0
Fr, 23.09. 8:00 0
Ortszeit Schneehöhe (cm)
So, 25.09. 6:30 0
So, 25.09. 6:20 0
So, 25.09. 6:10 0
So, 25.09. 6:00 0
So, 25.09. 5:50 0
So, 25.09. 5:40 0
So, 25.09. 5:30 0
So, 25.09. 5:00 0
So, 25.09. 4:30 0
So, 25.09. 4:00 0
So, 25.09. 3:30 0
Link zu dieser Seite / Seite empfehlen

Das Wetter in ...